createdAt,value
2023-05-19T00:00:00.857Z,11.30
2023-05-19T00:03:10.098Z,11.90
2023-05-19T00:06:18.079Z,10.90
2023-05-19T00:09:25.150Z,10.35
2023-05-19T00:12:31.751Z,11.93
2023-05-19T00:15:39.480Z,11.18
2023-05-19T00:18:44.922Z,11.05
2023-05-19T00:21:50.695Z,10.88
2023-05-19T00:24:57.415Z,11.03
2023-05-19T00:28:05.757Z,12.07
2023-05-19T00:31:11.679Z,11.63
2023-05-19T00:34:18.487Z,11.50
2023-05-19T00:37:25.569Z,11.15
2023-05-19T00:40:32.719Z,11.40
2023-05-19T00:43:38.096Z,12.50
2023-05-19T00:46:45.065Z,12.63
2023-05-19T00:49:50.369Z,12.07
2023-05-19T00:52:57.133Z,11.78
2023-05-19T00:56:03.684Z,11.70
2023-05-19T00:59:10.342Z,11.03
2023-05-19T01:02:15.592Z,11.35
2023-05-19T01:05:22.731Z,12.18
2023-05-19T01:08:29.049Z,11.45
2023-05-19T01:11:36.071Z,12.82
2023-05-19T01:14:41.680Z,11.12
2023-05-19T01:18:14.096Z,11.97
2023-05-19T01:21:30.177Z,11.50
2023-05-19T01:24:56.701Z,11.48
2023-05-19T01:28:23.331Z,11.57
2023-05-19T01:31:32.189Z,12.82
2023-05-19T01:34:38.510Z,12.45
2023-05-19T01:37:45.341Z,11.45
2023-05-19T01:40:52.441Z,11.78
2023-05-19T01:43:57.721Z,12.00
2023-05-19T01:47:04.463Z,11.88
2023-05-19T01:50:10.449Z,11.63
2023-05-19T01:53:16.435Z,11.68
2023-05-19T01:56:23.858Z,10.80
2023-05-19T01:59:53.118Z,11.83
2023-05-19T02:03:23.473Z,11.43
2023-05-19T02:07:16.522Z,12.30
2023-05-19T02:10:37.342Z,11.90
2023-05-19T02:13:46.127Z,12.75
2023-05-19T02:16:51.412Z,12.35
2023-05-19T02:19:59.320Z,13.03
2023-05-19T02:23:05.951Z,12.33
2023-05-19T02:26:12.746Z,12.10
2023-05-19T02:29:19.336Z,11.88
2023-05-19T02:32:26.380Z,11.30
2023-05-19T02:35:32.958Z,12.28
2023-05-19T02:38:39.040Z,12.05
2023-05-19T02:41:44.585Z,11.80
2023-05-19T02:44:50.069Z,10.78
2023-05-19T02:47:56.659Z,11.25
2023-05-19T02:51:01.852Z,11.68
2023-05-19T02:54:07.713Z,11.70
2023-05-19T02:57:13.488Z,11.35
2023-05-19T03:00:21.146Z,11.50
2023-05-19T03:03:26.835Z,11.53
2023-05-19T03:06:33.483Z,10.50
2023-05-19T03:09:40.106Z,11.90
2023-05-19T03:12:46.109Z,11.95
2023-05-19T03:15:52.914Z,11.05
2023-05-19T03:18:58.775Z,10.78
2023-05-19T03:22:05.506Z,11.97
2023-05-19T03:25:12.198Z,11.03
2023-05-19T03:28:17.794Z,10.82
2023-05-19T03:31:24.198Z,11.20
2023-05-19T03:34:30.598Z,11.12
2023-05-19T03:37:35.845Z,10.72
2023-05-19T03:40:41.251Z,10.82
2023-05-19T03:43:47.513Z,10.82
2023-05-19T03:46:54.825Z,10.85
2023-05-19T03:50:01.706Z,11.25
2023-05-19T03:53:16.332Z,10.98
2023-05-19T03:56:23.847Z,10.35
2023-05-19T03:59:30.878Z,9.85
2023-05-19T04:02:37.159Z,10.80
2023-05-19T04:05:43.919Z,10.80
2023-05-19T04:08:51.521Z,11.57
2023-05-19T04:11:58.372Z,11.03
2023-05-19T04:15:06.036Z,10.08
2023-05-19T04:18:12.812Z,9.93
2023-05-19T04:21:18.437Z,11.22
2023-05-19T04:24:23.545Z,10.05
2023-05-19T04:27:29.969Z,10.18
2023-05-19T04:30:35.668Z,10.28
2023-05-19T04:33:42.250Z,10.75
2023-05-19T04:36:49.176Z,11.05
2023-05-19T04:39:55.309Z,10.10
2023-05-19T04:43:02.771Z,9.88
2023-05-19T04:46:10.383Z,10.20
2023-05-19T04:49:19.002Z,9.15
2023-05-19T04:52:26.941Z,10.00
2023-05-19T04:55:33.000Z,10.03
2023-05-19T04:58:41.843Z,9.85
2023-05-19T05:01:47.814Z,9.73
2023-05-19T05:04:53.876Z,10.30
2023-05-19T05:08:01.244Z,9.00
2023-05-19T05:11:10.311Z,9.23
2023-05-19T05:14:16.926Z,9.15
2023-05-19T05:17:27.718Z,8.73
2023-05-19T05:20:34.994Z,8.65
2023-05-19T05:23:41.036Z,8.45
2023-05-19T05:26:49.123Z,8.10
2023-05-19T05:29:56.450Z,8.95
2023-05-19T05:33:03.373Z,7.87
2023-05-19T05:36:11.728Z,7.50
2023-05-19T05:39:18.472Z,7.30
2023-05-19T05:42:29.553Z,7.87
2023-05-19T05:45:35.439Z,7.40
2023-05-19T05:48:41.886Z,6.42
2023-05-19T05:52:04.307Z,7.10
2023-05-19T05:54:59.346Z,6.90
2023-05-19T05:58:08.621Z,6.03
2023-05-19T06:01:18.680Z,6.80
2023-05-19T06:04:26.075Z,5.87
2023-05-19T06:07:31.751Z,6.33
2023-05-19T06:10:39.193Z,6.30
2023-05-19T06:13:46.087Z,5.97
2023-05-19T06:16:54.946Z,5.65
2023-05-19T06:20:02.203Z,4.90
2023-05-19T06:23:08.529Z,6.37
2023-05-19T06:26:14.102Z,5.00
2023-05-19T06:29:19.515Z,4.75
2023-05-19T06:32:26.461Z,4.80
2023-05-19T06:35:33.244Z,5.20
2023-05-19T06:38:40.161Z,4.42
2023-05-19T06:41:46.428Z,4.50
2023-05-19T06:44:59.792Z,4.60
2023-05-19T06:48:06.178Z,4.30
2023-05-19T06:51:12.387Z,4.25
2023-05-19T06:54:23.140Z,4.37
2023-05-19T06:57:29.130Z,3.62
2023-05-19T07:00:35.804Z,3.02
2023-05-19T07:03:42.744Z,4.60
2023-05-19T07:06:48.762Z,3.67
2023-05-19T07:09:55.088Z,4.95
2023-05-19T07:13:02.203Z,3.47
2023-05-19T07:16:08.007Z,3.30
2023-05-19T07:19:16.325Z,3.33
2023-05-19T07:22:24.335Z,3.40
2023-05-19T07:25:29.237Z,3.12
2023-05-19T07:28:36.505Z,3.90
2023-05-19T07:31:43.495Z,3.45
2023-05-19T07:34:51.656Z,3.20
2023-05-19T07:38:00.250Z,3.42
2023-05-19T07:41:05.561Z,2.80
2023-05-19T07:44:13.930Z,2.80
2023-05-19T07:47:19.748Z,2.55
2023-05-19T07:50:24.947Z,2.87
2023-05-19T07:53:30.604Z,2.72
2023-05-19T07:56:37.501Z,2.77
2023-05-19T07:59:44.689Z,3.00
2023-05-19T08:02:54.171Z,3.70
2023-05-19T08:06:01.576Z,2.62
2023-05-19T08:09:09.034Z,2.72
2023-05-19T08:12:15.017Z,2.60
2023-05-19T08:15:24.351Z,3.45
2023-05-19T08:18:31.975Z,3.12
2023-05-19T08:21:39.325Z,2.87
2023-05-19T08:24:45.901Z,3.05
2023-05-19T08:27:52.210Z,2.37
2023-05-19T08:30:58.896Z,2.65
2023-05-19T08:34:06.171Z,2.98
2023-05-19T08:37:13.942Z,2.98
2023-05-19T08:40:23.157Z,3.10
2023-05-19T08:43:28.756Z,3.05
2023-05-19T08:46:38.363Z,2.70
2023-05-19T08:49:43.349Z,2.55
2023-05-19T08:53:21.059Z,2.40
2023-05-19T08:56:21.588Z,3.05
2023-05-19T08:59:29.579Z,2.85
2023-05-19T09:02:36.063Z,2.70
2023-05-19T09:05:42.483Z,3.45
2023-05-19T09:08:49.542Z,4.60
2023-05-19T09:11:55.816Z,3.17
2023-05-19T09:15:01.103Z,2.98
2023-05-19T09:18:09.525Z,2.83
2023-05-19T09:21:17.654Z,2.83
2023-05-19T09:24:24.332Z,2.87
2023-05-19T09:27:38.085Z,2.70
2023-05-19T09:30:45.081Z,2.70
2023-05-19T09:33:56.845Z,3.05
2023-05-19T09:37:02.729Z,2.60
2023-05-19T09:40:11.217Z,3.22
2023-05-19T09:43:22.626Z,3.15
2023-05-19T09:46:30.561Z,3.10
2023-05-19T09:49:39.855Z,2.62
2023-05-19T09:52:45.326Z,2.72
2023-05-19T09:55:52.188Z,3.17
2023-05-19T09:59:01.154Z,3.00
2023-05-19T10:02:10.124Z,2.67
2023-05-19T10:05:16.866Z,2.70
2023-05-19T10:08:24.395Z,2.90
2023-05-19T10:11:31.099Z,2.50
2023-05-19T10:14:41.151Z,2.22
2023-05-19T10:17:46.378Z,2.65
2023-05-19T10:20:53.674Z,2.65
2023-05-19T10:24:00.052Z,3.58
2023-05-19T10:27:18.129Z,2.77
2023-05-19T10:30:34.749Z,3.33
2023-05-19T10:34:10.485Z,3.00
2023-05-19T10:37:44.995Z,3.20
2023-05-19T10:41:13.066Z,2.50
2023-05-19T10:44:40.629Z,2.80
2023-05-19T10:47:55.203Z,2.60
2023-05-19T10:51:17.147Z,2.98
2023-05-19T10:54:28.917Z,2.70
2023-05-19T10:57:43.206Z,2.80
2023-05-19T11:00:51.890Z,2.50
2023-05-19T11:04:09.665Z,2.72
2023-05-19T11:07:18.631Z,2.80
2023-05-19T11:10:30.157Z,2.98
2023-05-19T11:13:37.450Z,2.92
2023-05-19T11:16:50.722Z,2.87
2023-05-19T11:20:12.087Z,2.85
2023-05-19T11:23:30.137Z,3.30
2023-05-19T11:26:56.985Z,3.20
2023-05-19T11:30:06.813Z,2.80
2023-05-19T11:33:13.262Z,2.80
2023-05-19T11:36:19.019Z,3.02
2023-05-19T11:39:24.574Z,2.87
2023-05-19T11:42:31.549Z,3.08
2023-05-19T11:45:41.196Z,5.00
2023-05-19T11:48:48.748Z,3.40
2023-05-19T11:51:55.926Z,3.20
2023-05-19T11:55:03.606Z,3.40
2023-05-19T11:58:13.501Z,3.58
2023-05-19T12:01:21.010Z,3.27
2023-05-19T12:04:26.411Z,3.12
2023-05-19T12:07:38.780Z,2.90
2023-05-19T12:10:46.571Z,2.80
2023-05-19T12:13:54.736Z,2.65
2023-05-19T12:17:02.548Z,3.08
2023-05-19T12:20:08.512Z,3.12
2023-05-19T12:23:15.060Z,3.47
2023-05-19T12:26:21.784Z,3.17
2023-05-19T12:29:28.373Z,3.15
2023-05-19T12:32:33.642Z,2.87
2023-05-19T12:35:44.586Z,2.85
2023-05-19T12:38:50.360Z,3.30
2023-05-19T12:42:01.351Z,4.03
2023-05-19T12:45:08.463Z,3.52
2023-05-19T12:48:13.486Z,3.62
2023-05-19T12:51:20.531Z,3.05
2023-05-19T12:54:27.369Z,3.80
2023-05-19T12:57:35.499Z,3.33
2023-05-19T13:00:43.448Z,2.90
2023-05-19T13:03:57.067Z,2.90
2023-05-19T13:07:03.094Z,3.52
2023-05-19T13:10:10.416Z,3.55
2023-05-19T13:13:19.054Z,3.40
2023-05-19T13:16:26.577Z,3.00
2023-05-19T13:19:33.976Z,3.33
2023-05-19T13:22:41.920Z,3.50
2023-05-19T13:25:49.019Z,3.33
2023-05-19T13:28:54.131Z,3.30
2023-05-19T13:32:03.636Z,3.52
2023-05-19T13:35:09.412Z,3.35
2023-05-19T13:38:15.922Z,3.65
2023-05-19T13:41:22.766Z,3.08
2023-05-19T13:44:27.970Z,3.62
2023-05-19T13:47:33.143Z,3.72
2023-05-19T13:50:40.762Z,3.22
2023-05-19T13:53:46.868Z,3.22
2023-05-19T13:56:55.620Z,3.65
2023-05-19T14:00:02.639Z,4.05
2023-05-19T14:03:14.667Z,3.55
2023-05-19T14:06:21.676Z,4.58
2023-05-19T14:09:27.994Z,4.72
2023-05-19T14:12:45.052Z,5.83
2023-05-19T14:15:44.696Z,4.70
2023-05-19T14:18:51.522Z,3.70
2023-05-19T14:21:58.527Z,4.22
2023-05-19T14:25:05.576Z,4.03
2023-05-19T14:28:11.517Z,5.35
2023-05-19T14:31:16.577Z,4.75
2023-05-19T14:34:24.039Z,4.62
2023-05-19T14:37:33.301Z,4.17
2023-05-19T14:40:38.811Z,5.53
2023-05-19T14:43:46.398Z,4.42
2023-05-19T14:46:52.910Z,4.55
2023-05-19T14:49:59.922Z,4.70
2023-05-19T14:53:05.734Z,4.72
2023-05-19T14:56:13.849Z,4.58
2023-05-19T14:59:20.979Z,5.03
2023-05-19T15:02:27.489Z,5.05
2023-05-19T15:05:32.262Z,4.50
2023-05-19T15:08:39.600Z,4.92
2023-05-19T15:11:46.556Z,4.78
2023-05-19T15:14:52.245Z,5.03
2023-05-19T15:17:57.711Z,4.95
2023-05-19T15:21:04.296Z,4.37
2023-05-19T15:24:10.133Z,4.35
2023-05-19T15:27:16.225Z,4.70
2023-05-19T15:30:22.078Z,5.05
2023-05-19T15:33:26.986Z,4.70
2023-05-19T15:36:32.255Z,5.00
2023-05-19T15:39:38.016Z,4.55
2023-05-19T15:42:44.986Z,4.62
2023-05-19T15:45:51.062Z,5.10
2023-05-19T15:48:56.486Z,4.60
2023-05-19T15:52:02.506Z,3.95
2023-05-19T15:55:08.718Z,3.70
2023-05-19T15:58:16.335Z,3.83
2023-05-19T16:01:21.558Z,4.53
2023-05-19T16:04:27.571Z,3.75
2023-05-19T16:07:32.326Z,4.55
2023-05-19T16:10:36.780Z,4.53
2023-05-19T16:13:42.407Z,4.72
2023-05-19T16:16:47.964Z,4.17
2023-05-19T16:19:56.122Z,3.98
2023-05-19T16:23:02.788Z,4.45
2023-05-19T16:26:08.418Z,5.12
2023-05-19T16:29:14.870Z,4.00
2023-05-19T16:32:21.681Z,4.33
2023-05-19T16:35:28.771Z,11.50
2023-05-19T16:38:35.375Z,5.97
2023-05-19T16:41:40.917Z,4.65
2023-05-19T16:44:46.651Z,4.70
2023-05-19T16:47:53.409Z,4.58
2023-05-19T16:51:02.569Z,5.03
2023-05-19T16:54:10.084Z,5.83
2023-05-19T16:57:16.934Z,6.08
2023-05-19T17:00:24.297Z,5.05
2023-05-19T17:03:31.722Z,8.43
2023-05-19T17:06:38.943Z,9.73
2023-05-19T17:09:44.736Z,7.85
2023-05-19T17:12:51.585Z,9.10
2023-05-19T17:15:58.750Z,9.33
2023-05-19T17:19:04.586Z,8.35
2023-05-19T17:22:11.107Z,8.88
2023-05-19T17:25:17.494Z,7.83
2023-05-19T17:28:23.375Z,9.28
2023-05-19T17:31:31.982Z,8.30
2023-05-19T17:34:38.736Z,7.78
2023-05-19T17:37:44.688Z,7.53
2023-05-19T17:40:44.198Z,6.97
2023-05-19T17:43:50.786Z,7.92
2023-05-19T17:46:58.069Z,7.92
2023-05-19T17:50:03.959Z,7.00
2023-05-19T17:53:09.738Z,6.60
2023-05-19T17:56:18.162Z,7.15
2023-05-19T17:59:23.121Z,7.33
2023-05-19T18:02:27.861Z,6.87
2023-05-19T18:05:35.036Z,7.00
2023-05-19T18:08:41.192Z,7.50
2023-05-19T18:11:46.617Z,6.97
2023-05-19T18:14:53.201Z,7.00
2023-05-19T18:17:59.258Z,7.10
2023-05-19T18:21:05.959Z,7.92
2023-05-19T18:24:13.418Z,7.87
2023-05-19T18:27:18.856Z,7.28
2023-05-19T18:30:24.872Z,7.70
2023-05-19T18:33:31.899Z,7.78
2023-05-19T18:36:38.874Z,8.18
2023-05-19T18:39:44.631Z,7.90
2023-05-19T18:42:50.633Z,7.42
2023-05-19T18:45:55.945Z,7.20
2023-05-19T18:49:03.744Z,8.73
2023-05-19T18:52:09.269Z,8.60
2023-05-19T18:55:16.047Z,9.23
2023-05-19T18:58:23.316Z,8.50
2023-05-19T19:01:30.158Z,8.53
2023-05-19T19:04:36.195Z,9.73
2023-05-19T19:07:42.970Z,9.43
2023-05-19T19:10:50.348Z,10.00
2023-05-19T19:14:01.737Z,12.37
2023-05-19T19:17:07.701Z,12.13
2023-05-19T19:20:15.279Z,11.80
2023-05-19T19:23:20.608Z,11.73
2023-05-19T19:26:25.678Z,11.85
2023-05-19T19:29:30.632Z,11.50
2023-05-19T19:32:38.527Z,11.40
2023-05-19T19:35:46.565Z,11.83
2023-05-19T19:38:54.157Z,12.15
2023-05-19T19:42:01.944Z,11.22
2023-05-19T19:45:05.851Z,10.38
2023-05-19T19:47:52.669Z,9.83
2023-05-19T19:50:45.861Z,11.60
2023-05-19T19:53:38.567Z,9.60
2023-05-19T19:56:45.136Z,9.38
2023-05-19T19:59:50.888Z,10.10
2023-05-19T20:03:05.135Z,9.58
2023-05-19T20:06:05.639Z,9.43
2023-05-19T20:09:12.701Z,9.53
2023-05-19T20:12:18.434Z,9.23
2023-05-19T20:15:25.558Z,8.00
2023-05-19T20:18:32.236Z,8.03
2023-05-19T20:21:38.639Z,7.92
2023-05-19T20:24:43.542Z,9.00
2023-05-19T20:27:49.750Z,7.65
2023-05-19T20:30:56.303Z,7.33
2023-05-19T20:34:03.580Z,7.00
2023-05-19T20:37:11.044Z,7.10
2023-05-19T20:40:19.916Z,6.80
2023-05-19T20:43:25.358Z,6.50
2023-05-19T20:46:31.263Z,6.37
2023-05-19T20:49:37.756Z,6.15
2023-05-19T20:52:42.955Z,6.90
2023-05-19T20:55:49.060Z,6.45
2023-05-19T20:58:55.496Z,6.62
2023-05-19T21:02:01.545Z,6.53
2023-05-19T21:05:06.256Z,7.00
2023-05-19T21:08:15.569Z,6.37
2023-05-19T21:11:21.744Z,6.62
2023-05-19T21:14:27.871Z,6.08
2023-05-19T21:17:33.028Z,6.15
2023-05-19T21:20:39.097Z,6.87
2023-05-19T21:23:45.381Z,6.50
2023-05-19T21:26:50.965Z,6.58
2023-05-19T21:29:56.695Z,6.33
2023-05-19T21:33:03.506Z,6.72
2023-05-19T21:36:09.056Z,7.15
2023-05-19T21:39:15.141Z,7.28
2023-05-19T21:42:21.729Z,6.85
2023-05-19T21:45:27.122Z,6.87
2023-05-19T21:48:33.590Z,6.72
2023-05-19T21:51:42.334Z,6.97
2023-05-19T21:54:48.185Z,7.45
2023-05-19T21:57:55.986Z,7.58
2023-05-19T22:01:07.902Z,6.62
2023-05-19T22:04:18.629Z,7.00
2023-05-19T22:07:25.171Z,7.72
2023-05-19T22:10:30.480Z,7.50
2023-05-19T22:13:40.257Z,7.42
2023-05-19T22:16:47.184Z,7.67
2023-05-19T22:19:54.088Z,8.20
2023-05-19T22:23:00.464Z,8.05
2023-05-19T22:26:08.365Z,8.95
2023-05-19T22:29:14.325Z,8.40
2023-05-19T22:32:24.820Z,8.73
2023-05-19T22:35:30.826Z,8.00
2023-05-19T22:38:36.019Z,7.70
2023-05-19T22:41:42.643Z,7.72
2023-05-19T22:44:48.390Z,7.42
2023-05-19T22:47:55.791Z,7.45
2023-05-19T22:51:01.765Z,7.70
2023-05-19T22:54:08.732Z,7.95
2023-05-19T22:57:13.817Z,7.60
2023-05-19T23:00:21.773Z,7.97
2023-05-19T23:03:26.889Z,8.35
2023-05-19T23:06:32.307Z,8.23
2023-05-19T23:09:37.748Z,7.87
2023-05-19T23:12:43.828Z,8.33
2023-05-19T23:15:42.192Z,9.23
2023-05-19T23:18:42.319Z,8.28
2023-05-19T23:21:47.550Z,7.90
2023-05-19T23:24:53.602Z,8.33
2023-05-19T23:28:00.037Z,8.73
2023-05-19T23:31:09.942Z,8.45
2023-05-19T23:34:15.638Z,8.35
2023-05-19T23:37:21.649Z,8.60
2023-05-19T23:40:28.016Z,8.60
2023-05-19T23:43:33.493Z,9.00
2023-05-19T23:46:39.806Z,8.28
2023-05-19T23:49:47.561Z,8.35
2023-05-19T23:52:54.662Z,9.03
2023-05-19T23:56:00.162Z,8.45
2023-05-19T23:59:06.933Z,8.73
